Time;durP1;ratioP1;P1;durP2;ratioP2;P2;SDS_P1;SDS_P2;PMS_P1;PMS_P2;Temp;Humidity;BMP_temperature;BMP_pressure;BME280_temperature;BME280_humidity;BME280_pressure;Samples;Min_cycle;Max_cycle;Signal;HPM_P1;HPM_P2
2022/11/15 00:01:25;;;;;;;10.35;0.93;;;11.30;99.90;;;;;;5046484;28;20442;-73
2022/11/15 00:03:51;;;;;;;8.50;0.82;;;11.40;99.90;;;;;;5065837;28;20498;-72
2022/11/15 00:06:17;;;;;;;9.40;1.15;;;11.40;99.90;;;;;;5062631;28;20377;-73
2022/11/15 00:08:43;;;;;;;8.40;1.10;;;11.50;99.90;;;;;;5051043;28;20047;-72
2022/11/15 00:11:11;;;;;;;9.18;0.80;;;11.50;99.90;;;;;;5051761;28;20039;-72
2022/11/15 00:13:36;;;;;;;5.35;1.02;;;11.50;99.90;;;;;;5044754;28;20071;-72
2022/11/15 00:16:03;;;;;;;7.72;1.02;;;11.60;99.90;;;;;;5048028;28;20036;-73
2022/11/15 00:18:29;;;;;;;8.85;1.02;;;11.60;99.90;;;;;;5061607;28;20052;-71
2022/11/15 00:21:02;;;;;;;4.13;0.77;;;11.60;99.90;;;;;;5050387;28;20020;-71
2022/11/15 00:23:28;;;;;;;7.70;0.98;;;11.60;99.90;;;;;;5060958;28;20131;-72
2022/11/15 00:25:58;;;;;;;6.47;0.90;;;11.60;99.90;;;;;;5069164;28;20493;-73
2022/11/15 00:28:24;;;;;;;7.20;0.93;;;11.60;99.90;;;;;;5037432;28;20036;-71
2022/11/15 00:30:50;;;;;;;7.15;1.00;;;11.60;99.90;;;;;;5047494;28;20037;-72
2022/11/15 00:33:15;;;;;;;5.03;0.77;;;11.70;99.90;;;;;;5063016;28;20083;-72
2022/11/15 00:35:41;;;;;;;8.63;1.23;;;11.60;99.90;;;;;;5053185;28;20055;-70
2022/11/15 00:38:07;;;;;;;9.93;0.98;;;11.60;99.90;;;;;;5048535;28;20040;-73
2022/11/15 00:40:32;;;;;;;8.50;1.40;;;11.70;99.90;;;;;;5066312;28;20037;-73
2022/11/15 00:42:58;;;;;;;5.75;0.90;;;11.70;99.90;;;;;;5065135;28;20028;-72
2022/11/15 00:45:24;;;;;;;6.30;0.93;;;11.70;99.90;;;;;;5065566;28;20148;-73
2022/11/15 00:47:50;;;;;;;9.55;1.00;;;11.80;99.90;;;;;;5065989;28;20040;-72
2022/11/15 00:50:16;;;;;;;8.82;1.10;;;11.90;99.90;;;;;;5066105;28;20040;-73
2022/11/15 00:52:42;;;;;;;10.68;1.10;;;12.00;99.90;;;;;;5066220;28;20041;-73
2022/11/15 00:55:14;;;;;;;10.55;2.17;;;12.00;99.90;;;;;;5048938;28;20403;-72
2022/11/15 00:57:39;;;;;;;12.43;1.45;;;12.10;99.90;;;;;;5046653;28;20430;-73
2022/11/15 01:00:06;;;;;;;10.20;1.40;;;12.10;99.90;;;;;;5058183;28;20556;-72
2022/11/15 01:02:31;;;;;;;8.25;1.48;;;12.10;99.90;;;;;;5065690;28;20036;-72
2022/11/15 01:04:57;;;;;;;10.13;1.70;;;12.20;99.90;;;;;;5064755;28;20035;-72
2022/11/15 01:07:22;;;;;;;9.32;1.48;;;12.10;99.90;;;;;;5054342;28;20040;-72
2022/11/15 01:09:48;;;;;;;9.40;1.55;;;12.10;99.90;;;;;;5064886;28;20067;-70
2022/11/15 01:12:13;;;;;;;6.85;1.10;;;12.00;99.90;;;;;;5059398;28;20037;-70
2022/11/15 01:14:39;;;;;;;12.15;1.70;;;12.00;99.90;;;;;;5065364;28;20033;-73
2022/11/15 01:17:04;;;;;;;9.65;1.30;;;12.00;99.90;;;;;;5066337;28;20383;-73
2022/11/15 01:19:30;;;;;;;10.68;1.25;;;11.90;99.90;;;;;;5047746;28;20109;-72
2022/11/15 01:21:55;;;;;;;9.75;1.23;;;12.00;99.90;;;;;;5065798;28;20030;-72
2022/11/15 01:24:21;;;;;;;9.45;1.10;;;12.00;99.90;;;;;;5066161;28;20384;-72
2022/11/15 01:26:47;;;;;;;11.93;1.20;;;12.00;99.90;;;;;;5047525;28;20040;-71
2022/11/15 01:29:12;;;;;;;10.45;1.20;;;12.00;99.90;;;;;;5066402;28;20462;-69
2022/11/15 01:31:38;;;;;;;8.98;1.23;;;12.00;99.90;;;;;;5066349;28;20445;-71
2022/11/15 01:34:03;;;;;;;9.93;1.40;;;12.10;99.90;;;;;;5047920;28;20025;-72
2022/11/15 01:36:29;;;;;;;8.90;1.35;;;12.10;99.90;;;;;;5066078;28;20056;-72
2022/11/15 01:38:57;;;;;;;11.43;1.45;;;12.20;99.90;;;;;;5065671;28;20253;-72
2022/11/15 01:41:29;;;;;;;9.30;1.85;;;12.20;99.90;;;;;;5066070;28;20059;-72
2022/11/15 01:43:57;;;;;;;10.20;1.50;;;12.20;99.90;;;;;;5064500;28;20032;-72
2022/11/15 01:46:33;;;;;;;11.93;1.30;;;12.30;99.90;;;;;;5065913;28;20042;-72
2022/11/15 01:49:04;;;;;;;11.63;1.23;;;12.30;99.90;;;;;;5046521;28;20346;-71
2022/11/15 01:51:32;;;;;;;12.30;1.38;;;12.40;99.90;;;;;;5063638;28;20024;-72
2022/11/15 01:54:03;;;;;;;9.63;1.55;;;12.40;99.90;;;;;;5063925;28;20040;-73
2022/11/15 01:56:35;;;;;;;12.63;1.67;;;12.40;99.90;;;;;;5065467;28;20490;-72
2022/11/15 01:59:04;;;;;;;7.38;1.20;;;12.50;99.90;;;;;;5064532;28;20317;-72
2022/11/15 02:01:32;;;;;;;8.90;1.20;;;12.50;99.90;;;;;;5044632;28;20498;-73
2022/11/15 02:04:14;;;;;;;8.75;1.10;;;12.50;99.90;;;;;;5064155;28;20048;-72
2022/11/15 02:06:42;;;;;;;15.07;1.95;;;12.60;99.90;;;;;;5064403;28;20028;-72
2022/11/15 02:09:08;;;;;;;10.00;1.35;;;12.60;99.90;;;;;;5064536;28;20066;-72
2022/11/15 02:11:33;;;;;;;10.43;1.08;;;12.60;99.90;;;;;;5065101;28;20063;-72
2022/11/15 02:14:01;;;;;;;8.88;1.05;;;12.60;99.90;;;;;;5065248;28;20161;-70
2022/11/15 02:16:54;;;;;;;9.15;1.13;;;12.60;99.90;;;;;;5073072;28;20035;-70
2022/11/15 02:19:20;;;;;;;9.55;1.35;;;12.70;99.90;;;;;;5063683;28;20032;-72
2022/11/15 02:21:49;;;;;;;10.35;1.38;;;12.70;99.90;;;;;;5070939;28;20035;-73
2022/11/15 02:24:45;;;;;;;11.50;1.85;;;12.70;99.90;;;;;;5069667;28;20111;-72
2022/11/15 02:27:28;;;;;;;10.70;1.20;;;12.80;99.90;;;;;;5068508;28;20051;-70
2022/11/15 02:30:03;;;;;;;14.88;1.70;;;12.80;99.90;;;;;;5067254;28;20032;-73
2022/11/15 02:32:49;;;;;;;10.63;1.17;;;12.80;99.90;;;;;;5068233;28;20712;-73
2022/11/15 02:35:35;;;;;;;9.98;1.65;;;12.90;99.90;;;;;;5067226;28;20024;-73
2022/11/15 02:38:12;;;;;;;9.45;1.33;;;12.90;99.90;;;;;;5068230;28;20056;-72
2022/11/15 02:40:41;;;;;;;16.60;3.22;;;12.90;99.90;;;;;;5068691;28;20499;-71
2022/11/15 02:46:13;;;;;;;8.98;1.27;;;13.00;99.90;;;;;;5067432;28;20358;-72
2022/11/15 02:48:39;;;;;;;12.88;1.65;;;13.00;99.90;;;;;;5065679;28;20125;-73
2022/11/15 02:51:05;;;;;;;9.82;1.30;;;13.00;99.90;;;;;;5066800;28;20482;-70
2022/11/15 02:53:31;;;;;;;9.55;1.45;;;13.00;99.90;;;;;;5068731;28;20115;-71
2022/11/15 02:55:57;;;;;;;10.52;1.50;;;13.00;99.90;;;;;;5068600;28;20108;-72
2022/11/15 02:58:52;;;;;;;11.30;2.08;;;13.10;99.90;;;;;;5071051;28;20546;-72
2022/11/15 03:01:36;;;;;;;11.88;1.38;;;13.00;99.90;;;;;;5057892;28;20036;-72
2022/11/15 03:04:40;;;;;;;10.00;1.48;;;13.10;99.90;;;;;;5038013;28;20147;-71
2022/11/15 03:07:16;;;;;;;9.50;1.40;;;13.10;99.90;;;;;;5037487;28;20052;-71
2022/11/15 03:09:56;;;;;;;9.45;2.13;;;13.10;99.90;;;;;;5065132;28;20130;-71
2022/11/15 03:12:37;;;;;;;12.00;1.58;;;13.10;99.90;;;;;;5068816;28;20485;-71
2022/11/15 03:15:31;;;;;;;9.18;1.98;;;13.10;99.90;;;;;;5056835;28;20094;-70
2022/11/15 03:18:10;;;;;;;7.55;1.35;;;13.20;99.90;;;;;;5043514;28;20084;-71
2022/11/15 03:20:36;;;;;;;8.73;1.23;;;13.10;99.90;;;;;;5066445;28;20067;-70
2022/11/15 03:23:09;;;;;;;9.55;1.55;;;13.20;99.90;;;;;;5066280;28;20078;-70
2022/11/15 03:25:40;;;;;;;12.65;1.80;;;13.10;99.90;;;;;;5048800;28;20135;-71
2022/11/15 03:28:08;;;;;;;12.25;1.30;;;13.10;99.90;;;;;;5066573;28;20063;-69
2022/11/15 03:30:37;;;;;;;7.25;1.50;;;13.10;99.90;;;;;;5064887;28;20044;-71
2022/11/15 03:33:04;;;;;;;10.85;1.52;;;13.10;99.90;;;;;;5063390;28;20536;-70
2022/11/15 03:35:35;;;;;;;9.77;1.30;;;13.10;99.90;;;;;;5068412;28;20311;-70
2022/11/15 03:38:23;;;;;;;8.50;1.42;;;13.20;99.90;;;;;;5067937;28;20051;-70
2022/11/15 03:41:04;;;;;;;8.13;1.27;;;13.20;99.90;;;;;;5067591;28;20033;-70
2022/11/15 03:43:51;;;;;;;14.57;1.80;;;13.20;99.90;;;;;;5066995;28;20036;-71
2022/11/15 03:46:32;;;;;;;8.90;1.40;;;13.20;99.90;;;;;;5067491;28;20845;-71
2022/11/15 03:49:09;;;;;;;12.00;2.08;;;13.20;99.90;;;;;;5067101;28;20028;-72
2022/11/15 03:51:34;;;;;;;14.38;2.13;;;13.20;99.90;;;;;;5048395;28;20040;-70
2022/11/15 03:54:03;;;;;;;12.65;1.50;;;13.20;99.90;;;;;;5048502;28;20541;-72
2022/11/15 03:56:29;;;;;;;11.45;1.80;;;13.20;99.90;;;;;;5066902;28;20482;-73
2022/11/15 03:58:54;;;;;;;12.18;1.73;;;13.20;99.90;;;;;;5066615;28;20028;-71
2022/11/15 04:01:20;;;;;;;12.27;1.90;;;13.20;99.90;;;;;;5065831;28;20037;-73
2022/11/15 04:03:46;;;;;;;10.10;1.52;;;13.10;99.90;;;;;;5065985;28;20303;-73
2022/11/15 04:06:11;;;;;;;10.77;1.83;;;13.10;99.90;;;;;;5067146;28;20479;-70
2022/11/15 04:08:37;;;;;;;13.30;1.98;;;13.10;99.90;;;;;;5048562;28;20040;-72
2022/11/15 04:11:02;;;;;;;13.02;1.85;;;13.10;99.90;;;;;;5067008;28;20035;-73
2022/11/15 04:13:28;;;;;;;9.88;1.55;;;13.10;99.90;;;;;;5067423;28;20037;-72
2022/11/15 04:15:54;;;;;;;15.73;2.20;;;13.10;99.90;;;;;;5066994;28;20501;-72
2022/11/15 04:18:19;;;;;;;10.95;1.65;;;13.00;99.90;;;;;;5066800;28;20517;-72
2022/11/15 04:26:19;;;;;;;9.23;1.38;;;13.00;99.90;;;;;;5067007;28;20039;-72
2022/11/15 04:31:28;;;;;;;15.32;2.42;;;13.00;99.90;;;;;;5066247;28;20098;-72
2022/11/15 04:33:54;;;;;;;17.42;2.22;;;13.00;99.90;;;;;;5067244;28;20028;-73
2022/11/15 04:39:05;;;;;;;15.90;2.22;;;13.00;99.90;;;;;;5066833;28;20039;-71
2022/11/15 04:41:30;;;;;;;11.05;1.58;;;13.00;99.90;;;;;;5067132;28;20040;-72
2022/11/15 04:43:56;;;;;;;13.75;2.00;;;13.00;99.90;;;;;;5067066;28;20467;-72
2022/11/15 04:46:23;;;;;;;10.57;1.85;;;13.00;99.90;;;;;;5067255;28;20029;-73
2022/11/15 04:48:49;;;;;;;12.55;1.80;;;13.00;99.90;;;;;;5067437;28;20378;-70
2022/11/15 04:51:14;;;;;;;10.23;1.70;;;13.00;99.90;;;;;;5065637;28;20037;-71
2022/11/15 04:53:40;;;;;;;12.73;2.10;;;13.00;99.90;;;;;;5076915;28;20044;-72
2022/11/15 04:56:06;;;;;;;10.95;1.75;;;13.00;99.90;;;;;;5065996;28;20100;-72
2022/11/15 04:58:31;;;;;;;11.65;1.92;;;13.00;99.90;;;;;;5047338;28;20032;-72
2022/11/15 05:00:57;;;;;;;13.93;1.67;;;13.00;99.90;;;;;;5065651;28;20077;-72
2022/11/15 05:06:07;;;;;;;15.10;1.60;;;13.10;99.90;;;;;;5058843;28;20104;-72
2022/11/15 05:08:32;;;;;;;16.25;2.03;;;13.10;99.90;;;;;;5064926;28;20119;-72
2022/11/15 05:10:58;;;;;;;13.20;2.35;;;13.10;99.90;;;;;;5065597;28;20037;-72
2022/11/15 05:13:24;;;;;;;14.43;1.58;;;13.10;99.90;;;;;;5066637;28;20040;-73
2022/11/15 05:15:49;;;;;;;12.25;1.98;;;13.00;99.90;;;;;;5061044;28;20025;-72
2022/11/15 05:18:15;;;;;;;11.50;2.22;;;13.10;99.90;;;;;;5063969;28;20618;-72
2022/11/15 05:20:41;;;;;;;15.88;1.85;;;13.10;99.90;;;;;;5069059;28;20036;-72
2022/11/15 05:23:06;;;;;;;11.13;1.50;;;13.10;99.90;;;;;;5048611;28;20020;-70
2022/11/15 05:25:32;;;;;;;11.75;1.77;;;13.10;99.90;;;;;;5069585;28;20074;-73
2022/11/15 05:27:58;;;;;;;9.43;1.25;;;13.10;99.90;;;;;;5050581;28;20036;-72
2022/11/15 05:30:23;;;;;;;16.95;2.17;;;13.10;99.90;;;;;;5047654;28;20037;-72
2022/11/15 05:32:50;;;;;;;18.10;2.30;;;13.00;99.90;;;;;;5065339;28;20380;-72
2022/11/15 05:35:30;;;;;;;11.30;1.90;;;13.00;99.90;;;;;;5065616;28;20028;-72
2022/11/15 05:37:56;;;;;;;12.70;1.70;;;13.00;99.90;;;;;;5065937;28;20032;-72
2022/11/15 05:40:21;;;;;;;12.18;1.70;;;13.00;99.90;;;;;;5048118;28;20043;-72
2022/11/15 05:42:48;;;;;;;12.10;1.75;;;13.00;99.90;;;;;;5074091;28;20482;-73
2022/11/15 05:45:14;;;;;;;13.38;2.08;;;13.00;99.90;;;;;;5064325;28;20437;-72
2022/11/15 05:47:40;;;;;;;15.85;1.98;;;13.00;99.90;;;;;;5039689;28;20068;-72
2022/11/15 05:50:06;;;;;;;11.63;2.25;;;12.90;99.90;;;;;;5064977;28;20033;-70
2022/11/15 05:52:35;;;;;;;15.43;2.13;;;13.00;99.90;;;;;;5061150;28;20055;-73
2022/11/15 05:55:04;;;;;;;14.97;1.70;;;13.00;99.90;;;;;;5066424;28;20033;-72
2022/11/15 05:57:30;;;;;;;10.63;1.83;;;13.00;99.90;;;;;;5063508;28;20278;-72
2022/11/15 05:59:55;;;;;;;15.05;2.38;;;13.00;99.90;;;;;;5068007;28;20036;-72
2022/11/15 06:02:21;;;;;;;12.07;1.95;;;13.00;99.90;;;;;;5069552;28;20087;-72
2022/11/15 06:04:47;;;;;;;12.52;1.95;;;13.00;99.90;;;;;;5067896;28;20156;-72
2022/11/15 06:07:12;;;;;;;11.43;1.77;;;13.00;99.90;;;;;;5068865;28;20501;-71
2022/11/15 06:09:38;;;;;;;16.60;2.22;;;13.00;99.90;;;;;;5067703;28;20037;-71
2022/11/15 06:12:04;;;;;;;13.40;1.95;;;13.00;99.90;;;;;;5069723;28;20039;-71
2022/11/15 06:14:29;;;;;;;14.10;2.03;;;13.00;99.90;;;;;;5068997;28;20086;-72
2022/11/15 06:16:55;;;;;;;21.35;2.70;;;13.00;99.90;;;;;;5069427;28;20028;-72
2022/11/15 06:19:21;;;;;;;15.45;1.90;;;13.00;99.90;;;;;;5050090;28;20028;-72
2022/11/15 06:21:46;;;;;;;15.43;2.55;;;13.00;99.90;;;;;;5069816;28;20028;-70
2022/11/15 06:24:12;;;;;;;10.60;1.80;;;13.00;99.90;;;;;;5051726;28;20029;-72
2022/11/15 06:26:37;;;;;;;12.15;2.33;;;13.00;99.90;;;;;;5069598;28;20025;-71
2022/11/15 06:29:04;;;;;;;13.32;1.48;;;13.00;99.90;;;;;;5075381;28;20390;-70
2022/11/15 06:31:30;;;;;;;13.45;1.98;;;13.00;99.90;;;;;;5065492;28;20368;-72
2022/11/15 06:33:55;;;;;;;14.90;2.20;;;13.00;99.90;;;;;;5064668;28;20490;-71
2022/11/15 06:36:21;;;;;;;15.98;2.35;;;12.90;99.90;;;;;;5068844;28;20025;-72
2022/11/15 06:38:47;;;;;;;12.95;1.88;;;12.80;99.90;;;;;;5069437;28;20039;-71
2022/11/15 06:41:14;;;;;;;11.60;2.00;;;12.60;99.90;;;;;;5078842;28;20221;-71
2022/11/15 06:43:40;;;;;;;13.43;2.15;;;12.50;99.90;;;;;;5067238;28;20082;-71
2022/11/15 06:46:06;;;;;;;18.35;2.60;;;12.50;99.90;;;;;;5069198;28;20038;-71
2022/11/15 06:48:33;;;;;;;11.68;2.20;;;12.40;99.90;;;;;;5048221;28;20115;-73
2022/11/15 06:51:01;;;;;;;18.63;2.63;;;12.40;99.90;;;;;;5049777;28;20078;-73
2022/11/15 06:53:27;;;;;;;14.82;1.85;;;12.40;99.90;;;;;;5044946;28;20032;-72
2022/11/15 06:55:53;;;;;;;16.00;1.77;;;12.40;99.90;;;;;;5064298;28;20032;-72
2022/11/15 06:58:20;;;;;;;16.00;2.00;;;12.50;99.90;;;;;;5070540;28;20077;-72
2022/11/15 07:00:46;;;;;;;16.92;2.28;;;12.50;99.90;;;;;;5064585;28;20069;-71
2022/11/15 07:03:11;;;;;;;13.50;1.83;;;12.60;99.90;;;;;;5068170;28;20037;-69
2022/11/15 07:05:37;;;;;;;12.70;2.22;;;12.70;99.90;;;;;;5066699;28;20029;-69
2022/11/15 07:08:03;;;;;;;14.52;1.80;;;12.70;99.90;;;;;;5064630;28;20319;-71
2022/11/15 07:10:29;;;;;;;12.82;2.08;;;12.80;99.90;;;;;;5061048;28;20112;-75
2022/11/15 07:12:56;;;;;;;12.95;2.22;;;12.70;99.90;;;;;;5068207;28;20590;-71
2022/11/15 07:15:24;;;;;;;19.98;2.47;;;12.60;99.90;;;;;;5043213;28;20072;-74
2022/11/15 07:17:50;;;;;;;18.67;2.30;;;12.40;99.90;;;;;;5065861;28;20119;-73
2022/11/15 07:20:17;;;;;;;19.45;2.42;;;12.40;99.90;;;;;;5058566;28;20736;-74
2022/11/15 07:22:45;;;;;;;14.35;2.05;;;12.30;99.90;;;;;;5068900;28;20028;-72
2022/11/15 07:25:11;;;;;;;16.02;2.75;;;12.30;99.90;;;;;;5073991;28;20074;-72
2022/11/15 07:27:37;;;;;;;22.63;2.42;;;12.30;99.90;;;;;;5071454;28;20485;-71
2022/11/15 07:30:04;;;;;;;21.65;2.83;;;12.20;99.90;;;;;;5072314;28;20659;-72
2022/11/15 07:32:29;;;;;;;15.52;2.33;;;12.20;99.90;;;;;;5066618;28;20542;-76
2022/11/15 07:34:55;;;;;;;19.08;3.08;;;12.10;99.90;;;;;;5064451;28;20032;-73
2022/11/15 07:37:21;;;;;;;16.33;2.72;;;12.10;99.90;;;;;;5050198;28;20025;-75
2022/11/15 07:39:46;;;;;;;15.95;2.80;;;12.10;99.90;;;;;;5052718;28;20040;-79
2022/11/15 07:44:56;;;;;;;16.33;2.50;;;12.00;99.90;;;;;;5067665;28;20067;-78
2022/11/15 07:47:21;;;;;;;15.82;2.53;;;11.90;99.90;;;;;;5067181;28;20064;-77
2022/11/15 07:49:47;;;;;;;17.50;2.50;;;11.90;99.90;;;;;;5067394;28;20446;-77
2022/11/15 07:52:13;;;;;;;16.67;2.38;;;11.90;99.90;;;;;;5049377;28;20028;-80
2022/11/15 07:54:39;;;;;;;13.98;2.45;;;11.90;99.90;;;;;;5047175;28;20031;-74
2022/11/15 07:57:06;;;;;;;19.85;2.83;;;11.90;99.90;;;;;;5067942;28;20041;-85
2022/11/15 07:59:32;;;;;;;18.20;2.70;;;11.90;99.90;;;;;;5048723;28;20028;-75
2022/11/15 08:01:58;;;;;;;18.67;2.50;;;11.90;99.90;;;;;;5063320;28;20035;-86
2022/11/15 08:04:23;;;;;;;20.45;2.70;;;11.90;99.90;;;;;;5046121;28;20036;-81
2022/11/15 08:06:49;;;;;;;11.02;2.00;;;11.90;99.90;;;;;;5063645;28;20044;-73
2022/11/15 08:09:15;;;;;;;11.63;1.92;;;11.90;99.90;;;;;;5062992;28;20039;-81
2022/11/15 08:11:40;;;;;;;12.88;2.45;;;11.90;99.90;;;;;;5047747;28;20131;-78
2022/11/15 08:14:06;;;;;;;13.65;2.45;;;11.90;99.90;;;;;;5069064;28;20032;-79
2022/11/15 08:16:32;;;;;;;15.13;2.55;;;11.90;99.90;;;;;;5049250;28;20048;-79
2022/11/15 08:18:57;;;;;;;16.88;2.38;;;11.90;99.90;;;;;;5045526;28;20033;-82
2022/11/15 08:21:23;;;;;;;17.95;2.55;;;11.90;99.90;;;;;;5042850;28;20048;-81
2022/11/15 08:23:49;;;;;;;12.75;2.20;;;11.80;99.90;;;;;;5065190;28;20032;-78
2022/11/15 08:26:14;;;;;;;13.35;2.47;;;11.80;99.90;;;;;;5050109;28;20371;-85
2022/11/15 08:28:40;;;;;;;17.40;2.70;;;11.90;99.90;;;;;;5048612;28;20652;-82
2022/11/15 08:31:06;;;;;;;18.95;2.85;;;11.90;99.90;;;;;;5049092;28;20090;-80
2022/11/15 08:33:32;;;;;;;17.08;2.72;;;11.90;99.90;;;;;;5067438;28;20086;-79
2022/11/15 08:35:59;;;;;;;20.25;3.10;;;11.90;99.90;;;;;;5067404;28;20034;-80
2022/11/15 08:38:27;;;;;;;18.55;2.97;;;11.90;99.90;;;;;;5066674;28;20642;-84
2022/11/15 08:40:59;;;;;;;24.73;3.28;;;11.90;99.90;;;;;;5048227;28;20730;-77
2022/11/15 08:43:25;;;;;;;13.73;2.90;;;11.90;99.90;;;;;;5041584;28;20701;-75
2022/11/15 08:45:51;;;;;;;15.23;2.45;;;11.90;99.90;;;;;;5045251;28;20710;-77
2022/11/15 08:48:16;;;;;;;15.68;2.72;;;11.90;99.90;;;;;;5046764;28;20029;-76
2022/11/15 08:50:43;;;;;;;16.40;3.35;;;11.90;99.90;;;;;;5063947;28;20025;-75
2022/11/15 08:53:10;;;;;;;13.82;3.15;;;12.00;99.90;;;;;;5065264;28;20039;-77
2022/11/15 08:55:37;;;;;;;11.13;2.53;;;12.00;99.90;;;;;;5046180;28;20127;-78
2022/11/15 08:58:04;;;;;;;14.38;2.75;;;12.00;99.90;;;;;;5060339;28;20098;-77
2022/11/15 09:00:29;;;;;;;16.45;2.55;;;12.00;99.90;;;;;;5043321;28;20039;-77
2022/11/15 09:02:55;;;;;;;13.65;2.63;;;12.00;99.90;;;;;;5046076;28;20032;-75
2022/11/15 09:05:21;;;;;;;20.80;3.10;;;12.00;99.90;;;;;;5064533;28;20040;-76
2022/11/15 09:07:46;;;;;;;17.35;2.53;;;12.00;99.90;;;;;;5044506;28;20119;-76
2022/11/15 09:10:12;;;;;;;15.43;2.40;;;12.00;99.90;;;;;;5045935;28;20029;-75
2022/11/15 09:12:38;;;;;;;14.95;3.35;;;12.00;99.90;;;;;;5061614;28;20028;-76
2022/11/15 09:15:05;;;;;;;16.95;3.10;;;12.00;99.90;;;;;;5038810;28;20080;-77
2022/11/15 09:17:30;;;;;;;21.10;3.30;;;12.00;99.90;;;;;;5048685;28;20024;-83
2022/11/15 09:19:56;;;;;;;19.80;3.00;;;12.00;99.90;;;;;;5033873;28;20024;-77
2022/11/15 09:22:22;;;;;;;22.95;3.38;;;12.00;99.90;;;;;;5059491;28;20041;-77
2022/11/15 09:24:47;;;;;;;22.20;3.40;;;12.00;99.90;;;;;;5048216;28;20116;-76
2022/11/15 09:27:13;;;;;;;24.10;4.55;;;12.00;99.90;;;;;;5063178;28;20483;-78
2022/11/15 09:29:38;;;;;;;24.45;3.97;;;12.00;99.90;;;;;;5028411;28;20029;-77
2022/11/15 09:32:04;;;;;;;27.38;4.18;;;12.00;99.90;;;;;;5040219;28;20028;-79
2022/11/15 09:34:30;;;;;;;23.30;4.63;;;12.00;99.90;;;;;;5065926;28;20035;-83
2022/11/15 09:36:56;;;;;;;21.80;3.42;;;12.00;99.90;;;;;;5066296;28;20438;-83
2022/11/15 09:39:21;;;;;;;27.63;3.58;;;12.00;99.90;;;;;;5047947;28;20039;-79
2022/11/15 09:42:14;;;;;;;19.65;3.30;;;12.10;99.90;;;;;;5043492;28;20036;-81
2022/11/15 09:45:16;;;;;;;17.35;3.35;;;12.10;99.90;;;;;;5047141;28;20027;-83
2022/11/15 09:48:15;;;;;;;22.23;4.35;;;12.10;99.90;;;;;;5047426;28;20047;-77
2022/11/15 09:50:53;;;;;;;26.25;3.88;;;12.10;99.90;;;;;;5047749;28;20131;-82
2022/11/15 09:53:43;;;;;;;23.88;4.10;;;12.00;99.90;;;;;;5047563;28;20384;-75
2022/11/15 09:56:23;;;;;;;21.15;4.65;;;12.00;99.90;;;;;;5030224;28;20074;-75
2022/11/15 09:58:57;;;;;;;14.05;2.95;;;12.00;99.90;;;;;;5046057;28;20068;-75
2022/11/15 10:01:49;;;;;;;21.05;3.95;;;12.00;99.90;;;;;;5050091;28;20036;-76
2022/11/15 10:04:15;;;;;;;24.02;3.95;;;12.00;99.90;;;;;;5046868;28;20073;-74
2022/11/15 10:06:55;;;;;;;24.85;3.50;;;12.00;99.90;;;;;;5056038;28;20117;-74
2022/11/15 10:09:28;;;;;;;28.00;4.13;;;12.00;99.90;;;;;;5061147;28;20036;-78
2022/11/15 10:11:54;;;;;;;22.38;3.38;;;12.00;99.90;;;;;;5065959;28;20032;-74
2022/11/15 10:14:23;;;;;;;27.95;4.78;;;12.00;99.90;;;;;;5068339;28;20729;-82
2022/11/15 10:17:36;;;;;;;21.07;3.13;;;12.00;99.90;;;;;;5052638;28;20025;-76
2022/11/15 10:20:22;;;;;;;20.50;3.75;;;12.00;99.90;;;;;;5028638;28;20265;-78
2022/11/15 10:23:10;;;;;;;23.35;3.13;;;12.00;99.90;;;;;;5064727;28;20102;-75
2022/11/15 10:25:36;;;;;;;26.02;3.22;;;12.00;99.90;;;;;;5059553;28;20032;-77
2022/11/15 10:28:27;;;;;;;20.67;3.53;;;12.10;99.90;;;;;;5042904;28;20037;-77
2022/11/15 10:30:55;;;;;;;14.52;2.50;;;12.00;99.90;;;;;;5057661;28;20025;-79
2022/11/15 10:33:26;;;;;;;16.92;3.05;;;12.00;99.90;;;;;;5060370;28;20479;-77
2022/11/15 10:36:09;;;;;;;16.50;2.85;;;12.10;99.90;;;;;;5064996;28;20105;-76
2022/11/15 10:38:50;;;;;;;24.55;3.63;;;12.10;99.90;;;;;;5047106;28;20042;-74
2022/11/15 10:41:17;;;;;;;19.42;2.58;;;12.10;99.90;;;;;;5064816;28;20151;-76
2022/11/15 10:43:43;;;;;;;21.83;3.80;;;12.10;99.90;;;;;;5046953;28;20516;-78
2022/11/15 10:46:24;;;;;;;24.85;2.85;;;12.10;99.90;;;;;;5040906;28;20025;-73
2022/11/15 10:48:49;;;;;;;16.85;2.97;;;12.20;99.90;;;;;;5055895;28;20162;-73
2022/11/15 10:51:28;;;;;;;18.85;3.15;;;12.20;99.90;;;;;;5050732;28;20151;-78
2022/11/15 10:53:57;;;;;;;17.38;2.65;;;12.20;99.90;;;;;;5049501;28;20036;-80
2022/11/15 10:56:26;;;;;;;13.68;2.55;;;12.20;99.90;;;;;;5066898;28;20064;-82
2022/11/15 10:58:55;;;;;;;18.65;2.90;;;12.20;99.90;;;;;;5068531;28;20061;-78
2022/11/15 11:01:29;;;;;;;14.70;2.53;;;12.20;99.90;;;;;;5068234;28;20031;-76
2022/11/15 11:04:06;;;;;;;15.23;2.28;;;12.20;99.90;;;;;;5068080;28;20032;-72
2022/11/15 11:06:49;;;;;;;14.48;2.58;;;12.20;99.90;;;;;;5050275;28;20508;-79
2022/11/15 11:09:37;;;;;;;13.40;3.20;;;12.20;99.90;;;;;;5068968;28;20064;-83
2022/11/15 11:12:05;;;;;;;19.92;2.97;;;12.30;99.90;;;;;;5068773;28;20056;-82
2022/11/15 11:14:33;;;;;;;16.13;3.15;;;12.30;99.90;;;;;;5067939;28;20037;-79
2022/11/15 11:17:38;;;;;;;20.13;2.65;;;12.30;99.90;;;;;;5068374;28;20101;-78
2022/11/15 11:20:27;;;;;;;16.42;2.63;;;12.30;99.90;;;;;;5069070;28;20035;-80
2022/11/15 11:23:38;;;;;;;16.98;3.17;;;12.40;99.90;;;;;;5066720;28;20029;-78
2022/11/15 11:26:18;;;;;;;14.30;2.53;;;12.40;99.90;;;;;;5060197;28;20406;-78
2022/11/15 11:29:13;;;;;;;21.05;3.28;;;12.40;99.90;;;;;;5068072;28;20025;-81
2022/11/15 11:31:38;;;;;;;19.23;3.78;;;12.40;99.90;;;;;;5067439;28;20123;-78
2022/11/15 11:34:13;;;;;;;21.95;3.20;;;12.40;99.90;;;;;;5068204;28;20029;-81
2022/11/15 11:37:03;;;;;;;28.80;4.78;;;12.50;99.90;;;;;;5055907;28;20027;-78
2022/11/15 11:39:41;;;;;;;26.40;3.03;;;12.40;99.90;;;;;;5031756;28;20074;-76
2022/11/15 11:42:32;;;;;;;20.85;3.80;;;12.50;99.90;;;;;;5037206;28;20033;-75
2022/11/15 11:45:09;;;;;;;21.45;2.95;;;12.50;99.90;;;;;;5065818;28;20052;-72
2022/11/15 11:47:40;;;;;;;18.60;2.47;;;12.50;99.90;;;;;;5054687;28;20032;-73
2022/11/15 11:50:05;;;;;;;20.08;2.65;;;12.50;99.90;;;;;;5043625;28;20375;-73
2022/11/15 11:52:56;;;;;;;20.05;3.13;;;12.50;99.90;;;;;;5064882;28;20059;-74
2022/11/15 11:55:27;;;;;;;28.58;3.53;;;12.50;99.90;;;;;;5065649;28;20101;-75
2022/11/15 11:58:02;;;;;;;32.83;4.68;;;12.50;99.90;;;;;;5060596;28;20028;-73
2022/11/15 12:00:28;;;;;;;24.50;4.35;;;12.50;99.90;;;;;;5055856;28;20033;-75
2022/11/15 12:03:00;;;;;;;24.58;3.40;;;12.50;99.90;;;;;;5037332;28;20029;-72
2022/11/15 12:05:37;;;;;;;27.77;4.20;;;12.50;99.90;;;;;;5039896;28;20036;-75
2022/11/15 12:08:40;;;;;;;18.67;2.88;;;12.60;99.90;;;;;;5067852;28;20040;-75
2022/11/15 12:11:17;;;;;;;19.70;2.83;;;12.60;99.90;;;;;;5059801;28;20071;-72
2022/11/15 12:13:44;;;;;;;23.10;3.47;;;12.50;99.90;;;;;;5047449;28;20032;-72
2022/11/15 12:16:17;;;;;;;19.52;3.70;;;12.50;99.90;;;;;;5065970;28;20029;-72
2022/11/15 12:18:49;;;;;;;23.73;4.53;;;12.50;99.90;;;;;;5067391;28;20089;-74
2022/11/15 12:21:34;;;;;;;27.60;4.30;;;12.60;99.90;;;;;;5049561;28;20028;-76
2022/11/15 12:24:06;;;;;;;22.05;3.60;;;12.60;99.90;;;;;;5066960;28;20021;-72
2022/11/15 12:26:45;;;;;;;26.90;4.65;;;12.60;99.90;;;;;;5066268;28;20029;-74
2022/11/15 12:29:33;;;;;;;27.50;4.00;;;12.70;99.90;;;;;;5040255;28;20043;-72
2022/11/15 12:32:03;;;;;;;17.65;3.50;;;12.70;99.90;;;;;;5053566;28;20036;-73
2022/11/15 12:34:37;;;;;;;15.75;2.83;;;12.70;99.90;;;;;;5061522;28;20028;-71
2022/11/15 12:37:38;;;;;;;18.58;3.50;;;12.70;99.90;;;;;;5048645;28;20119;-74
2022/11/15 12:40:10;;;;;;;20.92;3.05;;;12.70;99.90;;;;;;5066204;28;20040;-73
2022/11/15 12:42:41;;;;;;;23.75;4.57;;;12.70;99.90;;;;;;5047842;28;20025;-71
2022/11/15 12:45:28;;;;;;;22.02;3.42;;;12.70;99.90;;;;;;5066451;28;20025;-73
2022/11/15 12:48:16;;;;;;;23.77;3.92;;;12.80;99.90;;;;;;5048336;28;20055;-71
2022/11/15 12:50:53;;;;;;;22.77;4.20;;;12.80;99.90;;;;;;5064351;28;20036;-74
2022/11/15 12:53:29;;;;;;;19.38;3.60;;;12.90;99.90;;;;;;5044906;28;20115;-72
2022/11/15 12:56:16;;;;;;;20.02;4.00;;;12.90;99.90;;;;;;5066343;28;20024;-72
2022/11/15 12:58:59;;;;;;;24.20;5.13;;;12.90;99.90;;;;;;5047853;28;20079;-73
2022/11/15 13:01:31;;;;;;;21.35;5.15;;;13.00;99.90;;;;;;5066777;28;20028;-73
2022/11/15 13:04:25;;;;;;;21.42;3.42;;;13.10;99.90;;;;;;5035148;28;20036;-73
2022/11/15 13:06:58;;;;;;;20.02;3.33;;;13.10;99.90;;;;;;5050583;28;20041;-71
2022/11/15 13:09:29;;;;;;;18.67;3.13;;;13.20;99.90;;;;;;5063108;28;20036;-73
2022/11/15 13:11:56;;;;;;;31.80;4.15;;;13.30;99.90;;;;;;5062892;28;20039;-73
2022/11/15 13:14:39;;;;;;;20.92;3.83;;;13.30;99.90;;;;;;5038842;28;20120;-72
2022/11/15 13:17:23;;;;;;;18.02;3.53;;;13.40;99.90;;;;;;5054788;28;20471;-73